sensor_id;sensor_type;location;lat;lon;timestamp;pressure;altitude;pressure_sealevel;temperature;humidity
65553;BME280;52465;51.560;14.368;2023-06-04T00:00:53;100784.88;;;19.02;46.34
65553;BME280;52465;51.560;14.368;2023-06-04T00:03:19;100785.09;;;19.00;46.08
65553;BME280;52465;51.560;14.368;2023-06-04T00:05:44;100776.31;;;19.00;46.40
65553;BME280;52465;51.560;14.368;2023-06-04T00:08:09;100770.41;;;18.98;46.43
65553;BME280;52465;51.560;14.368;2023-06-04T00:10:35;100776.53;;;18.98;46.59
65553;BME280;52465;51.560;14.368;2023-06-04T00:15:40;100761.78;;;18.83;46.39
65553;BME280;52465;51.560;14.368;2023-06-04T00:18:07;100774.25;;;18.95;46.64
65553;BME280;52465;51.560;14.368;2023-06-04T00:20:32;100777.13;;;18.94;46.58
65553;BME280;52465;51.560;14.368;2023-06-04T00:22:57;100762.44;;;18.91;46.51
65553;BME280;52465;51.560;14.368;2023-06-04T00:25:23;100768.56;;;18.92;46.55
65553;BME280;52465;51.560;14.368;2023-06-04T00:27:48;100759.34;;;18.88;46.67
65553;BME280;52465;51.560;14.368;2023-06-04T00:30:14;100766.72;;;18.92;46.56
65553;BME280;52465;51.560;14.368;2023-06-04T00:32:39;100768.72;;;18.90;46.47
65553;BME280;52465;51.560;14.368;2023-06-04T00:35:05;100746.25;;;18.80;46.51
65553;BME280;52465;51.560;14.368;2023-06-04T00:37:31;100747.69;;;18.82;46.54
65553;BME280;52465;51.560;14.368;2023-06-04T00:39:56;100764.66;;;18.88;46.73
65553;BME280;52465;51.560;14.368;2023-06-04T00:42:21;100765.03;;;18.85;46.94
65553;BME280;52465;51.560;14.368;2023-06-04T00:44:47;100759.94;;;18.83;46.94
65553;BME280;52465;51.560;14.368;2023-06-04T00:47:17;100763.03;;;18.87;46.83
65553;BME280;52465;51.560;14.368;2023-06-04T00:49:43;100762.78;;;18.82;46.66
65553;BME280;52465;51.560;14.368;2023-06-04T00:52:09;100754.84;;;18.82;46.83
65553;BME280;52465;51.560;14.368;2023-06-04T00:54:36;100751.16;;;18.83;46.77
65553;BME280;52465;51.560;14.368;2023-06-04T00:57:02;100732.13;;;18.72;46.97
65553;BME280;52465;51.560;14.368;2023-06-04T00:59:29;100746.88;;;18.82;46.70
65553;BME280;52465;51.560;14.368;2023-06-04T01:02:09;100750.56;;;18.81;46.93
65553;BME280;52465;51.560;14.368;2023-06-04T01:04:44;100751.53;;;18.80;46.82
65553;BME280;52465;51.560;14.368;2023-06-04T01:07:13;100748.88;;;18.80;46.99
65553;BME280;52465;51.560;14.368;2023-06-04T01:09:39;100747.66;;;18.75;46.81
65553;BME280;52465;51.560;14.368;2023-06-04T01:12:06;100726.75;;;18.59;46.92
65553;BME280;52465;51.560;14.368;2023-06-04T01:14:32;100749.50;;;18.75;46.95
65553;BME280;52465;51.560;14.368;2023-06-04T01:25:12;100735.00;;;18.71;46.91
65553;BME280;52465;51.560;14.368;2023-06-04T01:27:48;100723.53;;;18.64;47.25
65553;BME280;52465;51.560;14.368;2023-06-04T01:30:14;100735.19;;;18.69;47.14
65553;BME280;52465;51.560;14.368;2023-06-04T01:32:41;100740.50;;;18.69;47.07
65553;BME280;52465;51.560;14.368;2023-06-04T01:35:11;100734.56;;;18.67;47.19
65553;BME280;52465;51.560;14.368;2023-06-04T01:37:36;100731.41;;;18.57;47.20
65553;BME280;52465;51.560;14.368;2023-06-04T01:40:02;100736.56;;;18.65;47.01
65553;BME280;52465;51.560;14.368;2023-06-04T01:42:27;100738.41;;;18.65;46.92
65553;BME280;52465;51.560;14.368;2023-06-04T01:44:53;100742.91;;;18.64;47.14
65553;BME280;52465;51.560;14.368;2023-06-04T01:47:18;100732.88;;;18.60;46.98
65553;BME280;52465;51.560;14.368;2023-06-04T01:49:43;100726.53;;;18.54;47.09
65553;BME280;52465;51.560;14.368;2023-06-04T01:52:09;100741.44;;;18.62;47.15
65553;BME280;52465;51.560;14.368;2023-06-04T01:54:36;100742.03;;;18.57;47.09
65553;BME280;52465;51.560;14.368;2023-06-04T01:57:03;100742.66;;;18.59;47.20
65553;BME280;52465;51.560;14.368;2023-06-04T01:59:28;100734.06;;;18.57;47.35
65553;BME280;52465;51.560;14.368;2023-06-04T02:01:54;100733.09;;;18.58;47.18
65553;BME280;52465;51.560;14.368;2023-06-04T02:04:19;100728.97;;;18.56;47.08
65553;BME280;52465;51.560;14.368;2023-06-04T02:06:46;100720.78;;;18.50;47.30
65553;BME280;52465;51.560;14.368;2023-06-04T02:09:11;100738.75;;;18.55;47.20
65553;BME280;52465;51.560;14.368;2023-06-04T02:11:36;100733.47;;;18.55;47.26
65553;BME280;52465;51.560;14.368;2023-06-04T02:14:02;100737.13;;;18.54;47.29
65553;BME280;52465;51.560;14.368;2023-06-04T02:16:27;100740.59;;;18.55;47.10
65553;BME280;52465;51.560;14.368;2023-06-04T02:18:53;100737.50;;;18.51;47.25
65553;BME280;52465;51.560;14.368;2023-06-04T02:21:18;100729.56;;;18.51;47.31
65553;BME280;52465;51.560;14.368;2023-06-04T02:23:43;100734.88;;;18.51;47.45
65553;BME280;52465;51.560;14.368;2023-06-04T02:26:09;100730.78;;;18.48;47.27
65553;BME280;52465;51.560;14.368;2023-06-04T02:28:35;100717.50;;;18.42;47.18
65553;BME280;52465;51.560;14.368;2023-06-04T02:31:04;100732.63;;;18.48;47.38
65553;BME280;52465;51.560;14.368;2023-06-04T02:33:29;100713.78;;;18.30;47.35
65553;BME280;52465;51.560;14.368;2023-06-04T02:35:54;100736.47;;;18.45;47.29
65553;BME280;52465;51.560;14.368;2023-06-04T02:38:21;100725.22;;;18.37;47.52
65553;BME280;52465;51.560;14.368;2023-06-04T02:40:46;100728.09;;;18.42;47.78
65553;BME280;52465;51.560;14.368;2023-06-04T02:43:12;100727.47;;;18.40;47.50
65553;BME280;52465;51.560;14.368;2023-06-04T02:45:37;100731.94;;;18.39;47.49
65553;BME280;52465;51.560;14.368;2023-06-04T02:48:02;100741.38;;;18.42;47.61
65553;BME280;52465;51.560;14.368;2023-06-04T02:50:27;100732.34;;;18.30;47.55
65553;BME280;52465;51.560;14.368;2023-06-04T02:52:53;100734.00;;;18.37;47.38
65553;BME280;52465;51.560;14.368;2023-06-04T02:55:18;100736.44;;;18.39;47.49
65553;BME280;52465;51.560;14.368;2023-06-04T02:57:43;100736.66;;;18.37;47.55
65553;BME280;52465;51.560;14.368;2023-06-04T03:00:10;100731.94;;;18.33;47.52
65553;BME280;52465;51.560;14.368;2023-06-04T03:02:58;100734.19;;;18.36;47.43
65553;BME280;52465;51.560;14.368;2023-06-04T03:05:26;100717.00;;;18.25;47.50
65553;BME280;52465;51.560;14.368;2023-06-04T03:07:52;100716.78;;;18.20;47.55
65553;BME280;52465;51.560;14.368;2023-06-04T03:10:18;100735.19;;;18.35;47.62
65553;BME280;52465;51.560;14.368;2023-06-04T03:12:44;100746.19;;;18.32;47.61
65553;BME280;52465;51.560;14.368;2023-06-04T03:15:10;100744.38;;;18.32;47.52
65553;BME280;52465;51.560;14.368;2023-06-04T03:17:36;100732.47;;;18.21;47.64
65553;BME280;52465;51.560;14.368;2023-06-04T03:20:02;100730.22;;;18.18;47.71
65553;BME280;52465;51.560;14.368;2023-06-04T03:22:29;100746.97;;;18.26;47.65
65553;BME280;52465;51.560;14.368;2023-06-04T03:24:55;100742.50;;;18.26;47.92
65553;BME280;52465;51.560;14.368;2023-06-04T03:27:20;100746.78;;;18.27;47.70
65553;BME280;52465;51.560;14.368;2023-06-04T03:29:45;100749.44;;;18.27;47.54
65553;BME280;52465;51.560;14.368;2023-06-04T03:32:11;100743.69;;;18.23;47.54
65553;BME280;52465;51.560;14.368;2023-06-04T03:34:38;100752.28;;;18.26;47.63
65553;BME280;52465;51.560;14.368;2023-06-04T03:37:03;100758.59;;;18.24;47.77
65553;BME280;52465;51.560;14.368;2023-06-04T03:39:28;100740.63;;;18.20;47.88
65553;BME280;52465;51.560;14.368;2023-06-04T03:41:54;100750.81;;;18.23;47.87
65553;BME280;52465;51.560;14.368;2023-06-04T03:44:21;100750.00;;;18.22;47.91
65553;BME280;52465;51.560;14.368;2023-06-04T03:46:47;100756.94;;;18.23;47.76
65553;BME280;52465;51.560;14.368;2023-06-04T03:49:13;100743.41;;;18.12;47.95
65553;BME280;52465;51.560;14.368;2023-06-04T03:51:39;100760.00;;;18.20;47.78
65553;BME280;52465;51.560;14.368;2023-06-04T03:54:05;100742.34;;;18.06;47.80
65553;BME280;52465;51.560;14.368;2023-06-04T03:56:31;100762.03;;;18.18;47.83
65553;BME280;52465;51.560;14.368;2023-06-04T03:58:57;100754.66;;;18.14;47.57
65553;BME280;52465;51.560;14.368;2023-06-04T04:01:23;100750.78;;;18.16;47.83
65553;BME280;52465;51.560;14.368;2023-06-04T04:03:49;100756.91;;;18.17;47.89
65553;BME280;52465;51.560;14.368;2023-06-04T04:06:33;100759.75;;;18.15;47.93
65553;BME280;52465;51.560;14.368;2023-06-04T04:08:58;100750.13;;;18.08;47.87
65553;BME280;52465;51.560;14.368;2023-06-04T04:11:24;100773.00;;;18.15;47.98
65553;BME280;52465;51.560;14.368;2023-06-04T04:13:50;100757.06;;;18.09;47.84
65553;BME280;52465;51.560;14.368;2023-06-04T04:16:16;100775.66;;;18.15;48.00
65553;BME280;52465;51.560;14.368;2023-06-04T04:18:42;100764.00;;;18.10;47.79
65553;BME280;52465;51.560;14.368;2023-06-04T04:21:09;100769.28;;;18.10;47.82
65553;BME280;52465;51.560;14.368;2023-06-04T04:23:40;100779.91;;;18.10;47.72
65553;BME280;52465;51.560;14.368;2023-06-04T04:26:05;100780.66;;;18.04;47.55
65553;BME280;52465;51.560;14.368;2023-06-04T04:28:31;100781.44;;;17.97;47.54
65553;BME280;52465;51.560;14.368;2023-06-04T04:30:57;100781.19;;;17.92;47.69
65553;BME280;52465;51.560;14.368;2023-06-04T04:33:24;100783.03;;;17.92;47.63
65553;BME280;52465;51.560;14.368;2023-06-04T04:35:50;100783.38;;;17.89;47.50
65553;BME280;52465;51.560;14.368;2023-06-04T04:38:17;100782.38;;;17.90;47.58
65553;BME280;52465;51.560;14.368;2023-06-04T04:40:43;100763.38;;;17.80;47.33
65553;BME280;52465;51.560;14.368;2023-06-04T04:43:08;100771.94;;;17.82;47.39
65553;BME280;52465;51.560;14.368;2023-06-04T04:45:33;100778.91;;;17.89;47.38
65553;BME280;52465;51.560;14.368;2023-06-04T04:47:59;100785.28;;;17.95;47.45
65553;BME280;52465;51.560;14.368;2023-06-04T04:50:27;100790.41;;;17.96;47.27
65553;BME280;52465;51.560;14.368;2023-06-04T04:52:52;100787.56;;;17.98;47.35
65553;BME280;52465;51.560;14.368;2023-06-04T04:55:17;100788.38;;;17.98;47.04
65553;BME280;52465;51.560;14.368;2023-06-04T04:57:42;100781.03;;;18.01;47.26
65553;BME280;52465;51.560;14.368;2023-06-04T05:00:08;100777.41;;;18.02;47.15
65553;BME280;52465;51.560;14.368;2023-06-04T05:02:35;100781.03;;;18.01;47.13
65553;BME280;52465;51.560;14.368;2023-06-04T05:05:01;100777.19;;;18.03;47.06
65553;BME280;52465;51.560;14.368;2023-06-04T05:07:27;100789.63;;;18.03;47.28
65553;BME280;52465;51.560;14.368;2023-06-04T05:09:52;100785.34;;;18.02;47.12
65553;BME280;52465;51.560;14.368;2023-06-04T05:12:18;100774.88;;;17.93;47.06
65553;BME280;52465;51.560;14.368;2023-06-04T05:14:43;100783.69;;;18.01;47.08
65553;BME280;52465;51.560;14.368;2023-06-04T05:17:10;100795.34;;;18.06;46.94
65553;BME280;52465;51.560;14.368;2023-06-04T05:19:36;100794.53;;;18.06;46.98
65553;BME280;52465;51.560;14.368;2023-06-04T05:22:02;100794.34;;;18.07;47.05
65553;BME280;52465;51.560;14.368;2023-06-04T05:24:27;100788.41;;;18.05;47.17
65553;BME280;52465;51.560;14.368;2023-06-04T05:26:54;100796.75;;;18.02;47.13
65553;BME280;52465;51.560;14.368;2023-06-04T05:29:20;100792.28;;;18.03;47.11
65553;BME280;52465;51.560;14.368;2023-06-04T05:31:45;100794.13;;;18.02;47.00
65553;BME280;52465;51.560;14.368;2023-06-04T05:34:11;100799.66;;;18.07;47.24
65553;BME280;52465;51.560;14.368;2023-06-04T05:36:41;100792.09;;;18.04;47.26
65553;BME280;52465;51.560;14.368;2023-06-04T05:39:07;100793.72;;;18.05;47.12
65553;BME280;52465;51.560;14.368;2023-06-04T05:41:34;100800.66;;;18.06;47.10
65553;BME280;52465;51.560;14.368;2023-06-04T05:44:01;100800.66;;;18.06;47.13
65553;BME280;52465;51.560;14.368;2023-06-04T05:46:26;100800.66;;;18.06;47.20
65553;BME280;52465;51.560;14.368;2023-06-04T05:48:51;100801.47;;;18.07;47.09
65553;BME280;52465;51.560;14.368;2023-06-04T05:51:16;100797.94;;;18.00;47.13
65553;BME280;52465;51.560;14.368;2023-06-04T05:53:42;100803.28;;;18.06;47.29
65553;BME280;52465;51.560;14.368;2023-06-04T05:56:07;100801.81;;;17.97;47.23
65553;BME280;52465;51.560;14.368;2023-06-04T05:58:33;100809.41;;;18.07;47.18
65553;BME280;52465;51.560;14.368;2023-06-04T06:00:59;100806.53;;;18.02;47.37
65553;BME280;52465;51.560;14.368;2023-06-04T06:03:25;100794.03;;;17.95;47.16
65553;BME280;52465;51.560;14.368;2023-06-04T06:05:52;100802.06;;;18.02;47.36
65553;BME280;52465;51.560;14.368;2023-06-04T06:08:17;100807.53;;;18.01;47.05
65553;BME280;52465;51.560;14.368;2023-06-04T06:10:43;100813.28;;;18.04;47.07
65553;BME280;52465;51.560;14.368;2023-06-04T06:13:08;100813.91;;;18.06;47.34
65553;BME280;52465;51.560;14.368;2023-06-04T06:15:34;100791.78;;;17.92;47.34
65553;BME280;52465;51.560;14.368;2023-06-04T06:17:59;100809.19;;;18.02;47.25
65553;BME280;52465;51.560;14.368;2023-06-04T06:20:25;100813.47;;;18.03;47.15
65553;BME280;52465;51.560;14.368;2023-06-04T06:22:51;100814.50;;;18.02;47.21
65553;BME280;52465;51.560;14.368;2023-06-04T06:25:16;100809.75;;;17.97;47.44
65553;BME280;52465;51.560;14.368;2023-06-04T06:27:42;100802.19;;;17.94;47.27
65553;BME280;52465;51.560;14.368;2023-06-04T06:30:08;100819.16;;;18.00;47.21
65553;BME280;52465;51.560;14.368;2023-06-04T06:32:34;100830.00;;;18.05;47.10
65553;BME280;52465;51.560;14.368;2023-06-04T06:35:00;100829.19;;;18.04;47.45
65553;BME280;52465;51.560;14.368;2023-06-04T06:37:28;100819.97;;;18.00;46.97
65553;BME280;52465;51.560;14.368;2023-06-04T06:39:54;100820.59;;;18.02;47.17
65553;BME280;52465;51.560;14.368;2023-06-04T06:42:19;100806.22;;;17.90;47.20
65553;BME280;52465;51.560;14.368;2023-06-04T06:44:45;100807.69;;;17.92;47.21
65553;BME280;52465;51.560;14.368;2023-06-04T06:47:10;100815.06;;;17.97;47.48
65553;BME280;52465;51.560;14.368;2023-06-04T06:49:39;100829.94;;;17.98;47.04
65553;BME280;52465;51.560;14.368;2023-06-04T06:52:05;100828.72;;;18.01;46.93
65553;BME280;52465;51.560;14.368;2023-06-04T06:54:30;100837.94;;;18.05;46.99
65553;BME280;52465;51.560;14.368;2023-06-04T06:56:55;100840.59;;;18.05;46.91
65553;BME280;52465;51.560;14.368;2023-06-04T06:59:21;100837.50;;;18.01;47.02
65553;BME280;52465;51.560;14.368;2023-06-04T07:01:47;100837.31;;;18.03;47.10
65553;BME280;52465;51.560;14.368;2023-06-04T07:04:12;100841.59;;;18.04;47.00
65553;BME280;52465;51.560;14.368;2023-06-04T07:06:38;100818.91;;;17.94;46.95
65553;BME280;52465;51.560;14.368;2023-06-04T07:09:03;100842.22;;;18.06;46.74
65553;BME280;52465;51.560;14.368;2023-06-04T07:11:30;100841.19;;;18.07;46.95
65553;BME280;52465;51.560;14.368;2023-06-04T07:13:56;100829.13;;;17.97;46.80
65553;BME280;52465;51.560;14.368;2023-06-04T07:16:21;100825.91;;;18.02;46.85
65553;BME280;52465;51.560;14.368;2023-06-04T07:18:49;100835.75;;;18.08;46.67
65553;BME280;52465;51.560;14.368;2023-06-04T07:21:15;100810.13;;;17.94;46.49
65553;BME280;52465;51.560;14.368;2023-06-04T07:23:41;100829.19;;;18.04;46.96
65553;BME280;52465;51.560;14.368;2023-06-04T07:26:07;100820.59;;;18.02;46.61
65553;BME280;52465;51.560;14.368;2023-06-04T07:28:33;100837.16;;;18.11;46.66
65553;BME280;52465;51.560;14.368;2023-06-04T07:30:58;100824.31;;;18.08;46.64
65553;BME280;52465;51.560;14.368;2023-06-04T07:33:24;100816.94;;;18.03;46.53
65553;BME280;52465;51.560;14.368;2023-06-04T07:35:50;100830.03;;;18.11;46.63
65553;BME280;52465;51.560;14.368;2023-06-04T07:38:16;100832.69;;;18.11;46.54
65553;BME280;52465;51.560;14.368;2023-06-04T07:40:41;100832.53;;;18.13;46.48
65553;BME280;52465;51.560;14.368;2023-06-04T07:43:07;100801.38;;;17.93;46.38
65553;BME280;52465;51.560;14.368;2023-06-04T07:45:33;100809.25;;;18.08;46.51
65553;BME280;52465;51.560;14.368;2023-06-04T07:47:58;100830.28;;;18.16;46.33
65553;BME280;52465;51.560;14.368;2023-06-04T07:50:24;100824.38;;;18.14;46.47
65553;BME280;52465;51.560;14.368;2023-06-04T07:52:50;100810.47;;;18.12;46.54
65553;BME280;52465;51.560;14.368;2023-06-04T07:55:16;100808.66;;;18.13;46.29
65553;BME280;52465;51.560;14.368;2023-06-04T07:57:42;100803.97;;;18.15;46.38
65553;BME280;52465;51.560;14.368;2023-06-04T08:00:08;100811.97;;;18.21;46.35
65553;BME280;52465;51.560;14.368;2023-06-04T08:02:33;100800.06;;;18.11;46.26
65553;BME280;52465;51.560;14.368;2023-06-04T08:05:00;100801.94;;;18.17;46.08
65553;BME280;52465;51.560;14.368;2023-06-04T08:07:27;100815.25;;;18.23;46.08
65553;BME280;52465;51.560;14.368;2023-06-04T08:09:53;100813.44;;;18.24;45.90
65553;BME280;52465;51.560;14.368;2023-06-04T08:12:20;100811.41;;;18.26;46.21
65553;BME280;52465;51.560;14.368;2023-06-04T08:14:45;100813.03;;;18.27;45.84
65553;BME280;52465;51.560;14.368;2023-06-04T08:17:11;100811.00;;;18.29;45.87
65553;BME280;52465;51.560;14.368;2023-06-04T08:19:36;100809.81;;;18.32;45.84
65553;BME280;52465;51.560;14.368;2023-06-04T08:22:02;100804.50;;;18.32;45.73
65553;BME280;52465;51.560;14.368;2023-06-04T08:24:27;100808.59;;;18.34;45.90
65553;BME280;52465;51.560;14.368;2023-06-04T08:26:52;100807.78;;;18.34;45.94
65553;BME280;52465;51.560;14.368;2023-06-04T08:29:18;100812.72;;;18.37;45.80
65553;BME280;52465;51.560;14.368;2023-06-04T08:31:43;100818.63;;;18.39;45.93
65553;BME280;52465;51.560;14.368;2023-06-04T08:34:10;100811.88;;;18.36;45.92
65553;BME280;52465;51.560;14.368;2023-06-04T08:36:36;100819.44;;;18.39;46.08
65553;BME280;52465;51.560;14.368;2023-06-04T08:39:01;100805.00;;;18.42;45.89
65553;BME280;52465;51.560;14.368;2023-06-04T08:41:34;100815.41;;;18.43;45.81
65553;BME280;52465;51.560;14.368;2023-06-04T08:44:05;100809.66;;;18.40;45.72
65553;BME280;52465;51.560;14.368;2023-06-04T08:46:31;100818.50;;;18.47;45.66
65553;BME280;52465;51.560;14.368;2023-06-04T08:49:00;100823.78;;;18.47;45.42
65553;BME280;52465;51.560;14.368;2023-06-04T08:51:28;100825.84;;;18.51;45.57
65553;BME280;52465;51.560;14.368;2023-06-04T08:53:58;100831.97;;;18.52;45.29
65553;BME280;52465;51.560;14.368;2023-06-04T08:56:23;100818.50;;;18.47;45.32
65553;BME280;52465;51.560;14.368;2023-06-04T08:58:49;100830.16;;;18.53;45.49
65553;BME280;52465;51.560;14.368;2023-06-04T09:01:15;100835.69;;;18.58;45.33
65553;BME280;52465;51.560;14.368;2023-06-04T09:03:41;100826.88;;;18.57;45.30
65553;BME280;52465;51.560;14.368;2023-06-04T09:06:06;100830.78;;;18.61;45.37
65553;BME280;52465;51.560;14.368;2023-06-04T09:08:35;100818.94;;;18.57;45.37
65553;BME280;52465;51.560;14.368;2023-06-04T09:11:08;100824.69;;;18.61;45.10
65553;BME280;52465;51.560;14.368;2023-06-04T09:13:35;100827.56;;;18.66;44.96
65553;BME280;52465;51.560;14.368;2023-06-04T09:16:01;100815.91;;;18.60;44.99
65553;BME280;52465;51.560;14.368;2023-06-04T09:18:27;100821.44;;;18.65;44.91
65553;BME280;52465;51.560;14.368;2023-06-04T09:21:07;100828.22;;;18.68;44.88
65553;BME280;52465;51.560;14.368;2023-06-04T09:26:31;100817.97;;;18.65;44.81
65553;BME280;52465;51.560;14.368;2023-06-04T09:28:57;100814.88;;;18.61;44.96
65553;BME280;52465;51.560;14.368;2023-06-04T09:31:23;100823.53;;;18.70;44.77
65553;BME280;52465;51.560;14.368;2023-06-04T09:33:51;100822.13;;;18.74;44.86
65553;BME280;52465;51.560;14.368;2023-06-04T09:36:17;100802.25;;;18.63;44.96
65553;BME280;52465;51.560;14.368;2023-06-04T09:38:42;100816.63;;;18.75;44.57
65553;BME280;52465;51.560;14.368;2023-06-04T09:41:12;100789.63;;;18.65;44.67
65553;BME280;52465;51.560;14.368;2023-06-04T09:43:38;100815.22;;;18.80;44.63
65553;BME280;52465;51.560;14.368;2023-06-04T09:48:36;100803.19;;;18.84;44.31
65553;BME280;52465;51.560;14.368;2023-06-04T09:51:11;100806.50;;;18.86;44.44
65553;BME280;52465;51.560;14.368;2023-06-04T09:54:05;100815.06;;;18.88;44.53
65553;BME280;52465;51.560;14.368;2023-06-04T09:56:39;100803.19;;;18.84;44.24
65553;BME280;52465;51.560;14.368;2023-06-04T09:59:30;100793.81;;;18.81;44.28
65553;BME280;52465;51.560;14.368;2023-06-04T10:01:57;100808.97;;;18.94;44.20
65553;BME280;52465;51.560;14.368;2023-06-04T10:04:24;100791.75;;;18.83;44.14
65553;BME280;52465;51.560;14.368;2023-06-04T10:06:52;100813.25;;;18.95;44.18
65553;BME280;52465;51.560;14.368;2023-06-04T10:09:18;100807.56;;;18.98;44.35
65553;BME280;52465;51.560;14.368;2023-06-04T10:11:53;100806.53;;;18.99;44.32
65553;BME280;52465;51.560;14.368;2023-06-04T10:14:25;100802.47;;;19.03;44.30
65553;BME280;52465;51.560;14.368;2023-06-04T10:16:54;100788.34;;;18.96;44.24
65553;BME280;52465;51.560;14.368;2023-06-04T10:19:22;100798.78;;;19.04;44.12
65553;BME280;52465;51.560;14.368;2023-06-04T10:21:47;100806.34;;;19.07;44.10
65553;BME280;52465;51.560;14.368;2023-06-04T10:24:14;100802.88;;;19.07;44.14
65553;BME280;52465;51.560;14.368;2023-06-04T10:26:39;100793.72;;;19.09;44.05
65553;BME280;52465;51.560;14.368;2023-06-04T10:29:06;100784.88;;;19.02;43.88
65553;BME280;52465;51.560;14.368;2023-06-04T10:31:32;100792.69;;;19.10;43.74
65553;BME280;52465;51.560;14.368;2023-06-04T10:33:57;100801.25;;;19.12;43.78
65553;BME280;52465;51.560;14.368;2023-06-04T10:36:24;100798.22;;;19.15;43.77
65553;BME280;52465;51.560;14.368;2023-06-04T10:38:52;100797.81;;;19.18;43.69
65553;BME280;52465;51.560;14.368;2023-06-04T10:41:19;100770.63;;;19.03;43.76
65553;BME280;52465;51.560;14.368;2023-06-04T10:43:59;100790.47;;;19.20;43.65
65553;BME280;52465;51.560;14.368;2023-06-04T10:46:46;100781.28;;;19.23;43.69
65553;BME280;52465;51.560;14.368;2023-06-04T10:49:12;100781.69;;;19.20;43.75
65553;BME280;52465;51.560;14.368;2023-06-04T10:51:37;100790.69;;;19.25;43.48
65553;BME280;52465;51.560;14.368;2023-06-04T10:54:03;100764.31;;;19.11;43.47
65553;BME280;52465;51.560;14.368;2023-06-04T10:56:35;100796.41;;;19.29;43.46
65553;BME280;52465;51.560;14.368;2023-06-04T11:01:38;100768.22;;;19.28;43.28
65553;BME280;52465;51.560;14.368;2023-06-04T11:04:03;100784.81;;;19.37;43.17
65553;BME280;52465;51.560;14.368;2023-06-04T11:06:31;100786.44;;;19.38;43.22
65553;BME280;52465;51.560;14.368;2023-06-04T11:09:04;100781.34;;;19.36;43.03
65553;BME280;52465;51.560;14.368;2023-06-04T11:11:33;100793.97;;;19.41;43.28
65553;BME280;52465;51.560;14.368;2023-06-04T11:19:43;100769.09;;;19.42;42.97
65553;BME280;52465;51.560;14.368;2023-06-04T11:22:11;100752.31;;;19.35;43.04
65553;BME280;52465;51.560;14.368;2023-06-04T11:24:39;100762.53;;;19.44;42.91
65553;BME280;52465;51.560;14.368;2023-06-04T11:27:05;100768.66;;;19.45;42.90
65553;BME280;52465;51.560;14.368;2023-06-04T11:29:30;100753.34;;;19.40;43.02
65553;BME280;52465;51.560;14.368;2023-06-04T11:31:56;100771.16;;;19.53;43.11
65553;BME280;52465;51.560;14.368;2023-06-04T11:34:23;100781.34;;;19.56;43.42
65553;BME280;52465;51.560;14.368;2023-06-04T11:36:49;100779.31;;;19.58;42.85
65553;BME280;52465;51.560;14.368;2023-06-04T11:39:23;100759.28;;;19.55;42.91
65553;BME280;52465;51.560;14.368;2023-06-04T11:41:53;100762.19;;;19.61;42.95
65553;BME280;52465;51.560;14.368;2023-06-04T11:44:19;100761.16;;;19.62;43.12
65553;BME280;52465;51.560;14.368;2023-06-04T11:46:44;100762.59;;;19.64;43.01
65553;BME280;52465;51.560;14.368;2023-06-04T11:49:18;100755.47;;;19.65;43.04
65553;BME280;52465;51.560;14.368;2023-06-04T11:51:48;100750.31;;;19.63;42.91
65553;BME280;52465;51.560;14.368;2023-06-04T11:54:15;100744.16;;;19.56;42.92
65553;BME280;52465;51.560;14.368;2023-06-04T11:56:42;100753.78;;;19.64;42.81
65553;BME280;52465;51.560;14.368;2023-06-04T11:59:15;100760.75;;;19.71;42.68
65553;BME280;52465;51.560;14.368;2023-06-04T12:01:42;100760.56;;;19.73;42.62
65553;BME280;52465;51.560;14.368;2023-06-04T12:04:15;100762.19;;;19.74;42.69
65553;BME280;52465;51.560;14.368;2023-06-04T12:06:52;100757.28;;;19.77;42.33
65553;BME280;52465;51.560;14.368;2023-06-04T12:09:22;100755.06;;;19.81;42.51
65553;BME280;52465;51.560;14.368;2023-06-04T12:11:48;100758.53;;;19.81;42.28
65553;BME280;52465;51.560;14.368;2023-06-04T12:14:18;100746.22;;;19.80;42.29
65553;BME280;52465;51.560;14.368;2023-06-04T12:19:50;100745.84;;;19.84;42.28
65553;BME280;52465;51.560;14.368;2023-06-04T12:22:15;100753.19;;;19.88;42.27
65553;BME280;52465;51.560;14.368;2023-06-04T12:24:49;100743.38;;;19.89;42.37
65553;BME280;52465;51.560;14.368;2023-06-04T12:27:18;100724.81;;;19.75;42.17
65553;BME280;52465;51.560;14.368;2023-06-04T12:32:24;100742.13;;;19.91;42.20
65553;BME280;52465;51.560;14.368;2023-06-04T12:34:50;100753.19;;;19.95;42.27
65553;BME280;52465;51.560;14.368;2023-06-04T12:37:15;100752.97;;;19.96;42.14
65553;BME280;52465;51.560;14.368;2023-06-04T12:39:41;100752.78;;;19.98;42.27
65553;BME280;52465;51.560;14.368;2023-06-04T12:42:06;100747.25;;;19.99;42.29
65553;BME280;52465;51.560;14.368;2023-06-04T12:44:35;100753.41;;;20.00;42.15
65553;BME280;52465;51.560;14.368;2023-06-04T12:47:00;100749.91;;;19.99;42.10
65553;BME280;52465;51.560;14.368;2023-06-04T12:49:26;100730.91;;;19.96;42.16
65553;BME280;52465;51.560;14.368;2023-06-04T12:51:51;100724.16;;;19.93;42.19
65553;BME280;52465;51.560;14.368;2023-06-04T12:54:18;100743.78;;;20.05;42.08
65553;BME280;52465;51.560;14.368;2023-06-04T12:56:44;100732.72;;;20.02;42.28
65553;BME280;52465;51.560;14.368;2023-06-04T12:59:09;100746.22;;;20.07;42.21
65553;BME280;52465;51.560;14.368;2023-06-04T13:01:35;100727.22;;;19.97;42.25
65553;BME280;52465;51.560;14.368;2023-06-04T13:04:00;100748.88;;;20.14;41.95
65553;BME280;52465;51.560;14.368;2023-06-04T13:06:25;100735.56;;;20.14;41.90
65553;BME280;52465;51.560;14.368;2023-06-04T13:08:51;100714.94;;;20.02;41.93